createdAt,value
2018-01-24T00:01:50.888Z,100433.14
2018-01-24T00:04:17.124Z,100428.57
2018-01-24T00:06:43.374Z,100420.00
2018-01-24T00:09:09.615Z,100425.20
2018-01-24T00:11:35.849Z,100429.58
2018-01-24T00:14:02.100Z,100434.92
2018-01-24T00:16:28.343Z,100435.92
2018-01-24T00:18:55.331Z,100428.22
2018-01-24T00:21:21.562Z,100426.91
2018-01-24T00:23:47.800Z,100425.02
2018-01-24T00:26:14.047Z,100424.88
2018-01-24T00:28:40.439Z,100424.11
2018-01-24T00:31:06.663Z,100422.19
2018-01-24T00:33:32.915Z,100432.16
2018-01-24T00:35:59.199Z,100428.94
2018-01-24T00:38:26.183Z,100421.27
2018-01-24T00:40:52.409Z,100425.99
2018-01-24T00:43:18.656Z,100416.03
2018-01-24T00:45:44.917Z,100404.94
2018-01-24T00:48:12.091Z,100402.41
2018-01-24T00:50:39.059Z,100407.77
2018-01-24T00:53:05.314Z,100393.50
2018-01-24T00:55:31.540Z,100394.64
2018-01-24T00:57:57.879Z,100388.77
2018-01-24T01:00:24.118Z,100389.73
2018-01-24T01:02:50.347Z,100385.14
2018-01-24T01:05:16.598Z,100395.31
2018-01-24T01:07:50.780Z,100402.56
2018-01-24T01:10:17.037Z,100414.64
2018-01-24T01:12:43.242Z,100404.09
2018-01-24T01:15:09.469Z,100403.37
2018-01-24T01:17:35.701Z,100392.73
2018-01-24T01:20:01.957Z,100386.91
2018-01-24T01:22:28.183Z,100369.20
2018-01-24T01:24:54.424Z,100374.14
2018-01-24T01:27:21.401Z,100374.94
2018-01-24T01:29:47.648Z,100374.17
2018-01-24T01:32:13.878Z,100383.59
2018-01-24T01:34:40.125Z,100367.77
2018-01-24T01:37:06.415Z,100359.80
2018-01-24T01:39:32.640Z,100359.08
2018-01-24T01:41:58.886Z,100358.16
2018-01-24T01:44:25.124Z,100358.72
2018-01-24T01:46:51.350Z,100357.97
2018-01-24T01:49:17.608Z,100359.45
2018-01-24T01:51:43.834Z,100357.67
2018-01-24T01:54:10.130Z,100362.46
2018-01-24T01:56:36.382Z,100365.27
2018-01-24T01:59:02.642Z,100358.14
2018-01-24T02:01:28.866Z,100363.26
2018-01-24T02:03:55.123Z,100361.70
2018-01-24T02:06:22.074Z,100366.58
2018-01-24T02:08:48.371Z,100370.77
2018-01-24T02:11:15.034Z,100381.02
2018-01-24T02:13:42.033Z,100377.34
2018-01-24T02:16:08.288Z,100370.46
2018-01-24T02:18:35.333Z,100373.84
2018-01-24T02:21:01.593Z,100364.72
2018-01-24T02:23:28.583Z,100371.55
2018-01-24T02:25:54.804Z,100368.09
2018-01-24T02:28:21.031Z,100372.09
2018-01-24T02:30:47.270Z,100368.17
2018-01-24T02:33:13.515Z,100359.53
2018-01-24T02:35:39.738Z,100360.16
2018-01-24T02:38:05.954Z,100362.61
2018-01-24T02:40:32.187Z,100361.33
2018-01-24T02:42:58.454Z,100350.61
2018-01-24T02:45:24.761Z,100353.23
2018-01-24T02:47:50.984Z,100357.48
2018-01-24T02:50:17.200Z,100354.52
2018-01-24T02:52:43.419Z,100348.66
2018-01-24T02:55:16.747Z,100350.30
2018-01-24T02:57:42.979Z,100347.67
2018-01-24T03:00:09.215Z,100341.94
2018-01-24T03:02:35.439Z,100341.50
2018-01-24T03:05:01.676Z,100336.37
2018-01-24T03:07:27.912Z,100325.28
2018-01-24T03:09:54.877Z,100325.66
2018-01-24T03:12:21.124Z,100329.84
2018-01-24T03:14:47.344Z,100342.88
2018-01-24T03:17:13.587Z,100341.61
2018-01-24T03:19:39.815Z,100340.89
2018-01-24T03:22:06.066Z,100351.02
2018-01-24T03:24:32.295Z,100351.27
2018-01-24T03:26:58.537Z,100352.53
2018-01-24T03:29:24.743Z,100357.20
2018-01-24T03:31:50.996Z,100354.41
2018-01-24T03:34:17.212Z,100362.57
2018-01-24T03:36:43.456Z,100355.73
2018-01-24T03:39:09.660Z,100349.19
2018-01-24T03:41:35.880Z,100348.77
2018-01-24T03:44:02.136Z,100350.25
2018-01-24T03:46:28.384Z,100358.81
2018-01-24T03:48:54.615Z,100344.77
2018-01-24T03:51:20.840Z,100351.55
2018-01-24T03:53:47.074Z,100346.25
2018-01-24T03:56:14.044Z,100359.16
2018-01-24T03:58:40.266Z,100358.20
2018-01-24T04:01:07.263Z,100362.05
2018-01-24T04:03:33.475Z,100357.59
2018-01-24T04:05:59.725Z,100360.58
2018-01-24T04:08:25.929Z,100358.13
2018-01-24T04:10:52.172Z,100365.59
2018-01-24T04:13:18.399Z,100373.27
2018-01-24T04:15:44.648Z,100366.45
2018-01-24T04:18:10.867Z,100369.36
2018-01-24T04:20:37.115Z,100369.72
2018-01-24T04:23:03.331Z,100368.89
2018-01-24T04:25:29.585Z,100374.00
2018-01-24T04:27:55.837Z,100370.44
2018-01-24T04:30:22.083Z,100374.55
2018-01-24T04:32:48.323Z,100377.38
2018-01-24T04:35:14.559Z,100378.11
2018-01-24T04:37:40.784Z,100380.63
2018-01-24T04:40:07.079Z,100380.27
2018-01-24T04:42:33.307Z,100380.66
2018-01-24T04:44:59.557Z,100373.23
2018-01-24T04:47:25.808Z,100371.20
2018-01-24T04:49:52.028Z,100380.23
2018-01-24T04:52:18.278Z,100375.84
2018-01-24T04:54:44.532Z,100381.80
2018-01-24T04:57:10.782Z,100383.05
2018-01-24T04:59:37.770Z,100384.83
2018-01-24T05:02:04.024Z,100368.17
2018-01-24T05:04:30.260Z,100380.58
2018-01-24T05:06:56.494Z,100376.73
2018-01-24T05:09:23.475Z,100376.58
2018-01-24T05:11:49.703Z,100381.37
2018-01-24T05:14:15.934Z,100368.78
2018-01-24T05:16:42.186Z,100372.91
2018-01-24T05:19:08.506Z,100387.96
2018-01-24T05:21:34.796Z,100390.80
2018-01-24T05:24:01.780Z,100385.72
2018-01-24T05:26:28.057Z,100388.06
2018-01-24T05:28:54.311Z,100389.19
2018-01-24T05:31:21.344Z,100384.89
2018-01-24T05:33:48.323Z,100390.19
2018-01-24T05:36:14.579Z,100362.81
2018-01-24T05:38:40.800Z,100368.09
2018-01-24T05:41:07.094Z,100361.20
2018-01-24T05:43:34.103Z,100358.38
2018-01-24T05:46:00.367Z,100349.34
2018-01-24T05:48:27.340Z,100341.72
2018-01-24T05:50:53.748Z,100338.06
2018-01-24T05:53:20.754Z,100338.82
2018-01-24T05:55:47.051Z,100335.53
2018-01-24T05:58:13.324Z,100341.48
2018-01-24T06:00:39.608Z,100338.48
2018-01-24T06:03:05.858Z,100343.09
2018-01-24T06:05:32.192Z,100337.95
2018-01-24T06:07:58.520Z,100340.67
2018-01-24T06:10:24.814Z,100344.78
2018-01-24T06:12:51.855Z,100339.70
2018-01-24T06:15:18.901Z,100347.90
2018-01-24T06:17:45.143Z,100356.51
2018-01-24T06:20:11.431Z,100354.38
2018-01-24T06:22:39.135Z,100347.46
2018-01-24T06:25:05.399Z,100363.35
2018-01-24T06:27:31.635Z,100364.59
2018-01-24T06:29:57.869Z,100364.66
2018-01-24T06:32:24.091Z,100359.05
2018-01-24T06:34:50.341Z,100368.09
2018-01-24T06:37:16.552Z,100370.67
2018-01-24T06:39:42.775Z,100375.75
2018-01-24T06:42:08.988Z,100374.48
2018-01-24T06:44:35.211Z,100386.11
2018-01-24T06:47:01.444Z,100391.13
2018-01-24T06:49:27.719Z,100396.06
2018-01-24T06:51:53.968Z,100386.83
2018-01-24T06:54:20.984Z,100387.77
2018-01-24T06:56:47.212Z,100390.89
2018-01-24T06:59:13.470Z,100402.13
2018-01-24T07:01:40.442Z,100402.30
2018-01-24T07:04:06.680Z,100400.68
2018-01-24T07:06:32.904Z,100415.30
2018-01-24T07:08:59.136Z,100411.95
2018-01-24T07:11:25.452Z,100418.36
2018-01-24T07:17:09.584Z,100417.52
2018-01-24T07:19:35.894Z,100428.32
2018-01-24T07:22:02.152Z,100419.78
2018-01-24T07:24:28.408Z,100420.98
2018-01-24T07:26:55.386Z,100420.14
2018-01-24T07:29:21.660Z,100423.36
2018-01-24T07:31:47.868Z,100421.85
2018-01-24T07:34:14.111Z,100439.01
2018-01-24T07:36:40.465Z,100440.97
2018-01-24T07:39:06.695Z,100424.88
2018-01-24T07:41:32.947Z,100429.60
2018-01-24T07:43:59.209Z,100423.55
2018-01-24T07:46:25.420Z,100420.26
2018-01-24T07:48:51.717Z,100429.03
2018-01-24T07:51:17.989Z,100413.84
2018-01-24T07:53:44.275Z,100427.52
2018-01-24T07:56:11.263Z,100425.05
2018-01-24T07:58:37.643Z,100432.12
2018-01-24T08:01:03.927Z,100432.23
2018-01-24T08:03:30.201Z,100439.30
2018-01-24T08:05:57.179Z,100441.69
2018-01-24T08:08:23.435Z,100437.48
2018-01-24T08:10:49.704Z,100439.81
2018-01-24T08:13:15.973Z,100429.51
2018-01-24T08:15:42.290Z,100449.58
2018-01-24T08:18:08.540Z,100443.14
2018-01-24T08:20:34.768Z,100431.77
2018-01-24T08:23:01.019Z,100432.05
2018-01-24T08:25:27.274Z,100433.78
2018-01-24T08:27:53.550Z,100439.44
2018-01-24T08:30:19.810Z,100445.30
2018-01-24T08:32:46.088Z,100446.48
2018-01-24T08:35:12.324Z,100438.90
2018-01-24T08:37:38.588Z,100434.94
2018-01-24T08:40:04.862Z,100431.62
2018-01-24T08:42:31.916Z,100439.80
2018-01-24T08:44:58.939Z,100434.70
2018-01-24T08:47:25.432Z,100428.98
2018-01-24T08:49:51.727Z,100452.81
2018-01-24T08:52:18.705Z,100451.11
2018-01-24T08:54:44.943Z,100459.67
2018-01-24T08:57:11.202Z,100463.95
2018-01-24T08:59:37.967Z,100455.81
2018-01-24T09:02:04.208Z,100456.82
2018-01-24T09:04:31.494Z,100452.94
2018-01-24T09:06:57.748Z,100457.34
2018-01-24T09:09:23.988Z,100465.02
2018-01-24T09:11:50.704Z,100461.36
2018-01-24T09:14:17.040Z,100462.75
2018-01-24T09:16:43.370Z,100454.63
2018-01-24T09:19:09.716Z,100461.11
2018-01-24T09:21:36.402Z,100461.48
2018-01-24T09:24:03.728Z,100454.92
2018-01-24T09:26:29.994Z,100461.23
2018-01-24T09:28:56.241Z,100461.27
2018-01-24T09:31:22.488Z,100459.95
2018-01-24T09:33:48.733Z,100456.51
2018-01-24T09:36:14.986Z,100458.38
2018-01-24T09:38:41.998Z,100454.15
2018-01-24T09:41:08.324Z,100458.13
2018-01-24T09:43:34.573Z,100454.08
2018-01-24T09:46:00.969Z,100456.94
2018-01-24T09:48:27.227Z,100446.27
2018-01-24T09:50:53.443Z,100448.41
2018-01-24T09:53:19.665Z,100446.33
2018-01-24T09:55:45.913Z,100441.13
2018-01-24T09:58:12.119Z,100462.61
2018-01-24T10:00:38.413Z,100444.36
2018-01-24T10:03:05.429Z,100447.83
2018-01-24T10:05:31.687Z,100438.73
2018-01-24T10:07:58.669Z,100425.94
2018-01-24T10:10:24.904Z,100423.60
2018-01-24T10:12:51.160Z,100412.70
2018-01-24T10:15:17.414Z,100413.16
2018-01-24T10:17:44.388Z,100406.42
2018-01-24T10:20:10.635Z,100404.52
2018-01-24T10:22:36.871Z,100403.69
2018-01-24T10:25:03.148Z,100389.92
2018-01-24T10:27:30.138Z,100395.19
2018-01-24T10:29:56.432Z,100391.78
2018-01-24T10:32:22.748Z,100395.65
2018-01-24T10:34:48.992Z,100387.97
2018-01-24T10:37:16.052Z,100386.84
2018-01-24T10:39:42.350Z,100388.28
2018-01-24T10:42:08.707Z,100383.45
2018-01-24T10:44:34.984Z,100379.56
2018-01-24T10:47:01.223Z,100380.16
2018-01-24T10:49:27.461Z,100372.11
2018-01-24T10:51:53.731Z,100383.52
2018-01-24T10:54:19.993Z,100386.25
2018-01-24T10:56:46.493Z,100384.23
2018-01-24T10:59:12.795Z,100374.83
2018-01-24T11:01:39.047Z,100371.03
2018-01-24T11:04:05.311Z,100364.85
2018-01-24T11:06:31.527Z,100357.10
2018-01-24T11:08:57.796Z,100354.69
2018-01-24T11:11:24.043Z,100354.58
2018-01-24T11:13:50.276Z,100338.50
2018-01-24T11:16:16.577Z,100342.44
2018-01-24T11:18:42.815Z,100329.32
2018-01-24T11:21:09.067Z,100321.83
2018-01-24T11:23:35.395Z,100321.02
2018-01-24T11:26:02.384Z,100318.91
2018-01-24T11:28:28.682Z,100316.29
2018-01-24T11:30:55.724Z,100306.44
2018-01-24T11:33:22.032Z,100314.05
2018-01-24T11:35:48.282Z,100305.66
2018-01-24T11:38:15.360Z,100295.00
2018-01-24T11:40:41.644Z,100289.77
2018-01-24T11:43:07.917Z,100285.69
2018-01-24T11:45:34.288Z,100295.64
2018-01-24T11:48:00.534Z,100295.09
2018-01-24T11:50:26.833Z,100293.64
2018-01-24T11:52:53.078Z,100279.03
2018-01-24T11:55:19.394Z,100279.25
2018-01-24T11:57:45.632Z,100272.36
2018-01-24T12:00:12.720Z,100268.27
2018-01-24T12:02:39.698Z,100261.98
2018-01-24T12:05:12.975Z,100255.84
2018-01-24T12:07:40.009Z,100252.05
2018-01-24T12:10:06.332Z,100255.58
2018-01-24T12:12:32.584Z,100257.39
2018-01-24T12:14:59.643Z,100248.22
2018-01-24T12:17:26.642Z,100236.73
2018-01-24T12:19:52.876Z,100233.49
2018-01-24T12:22:19.133Z,100214.75
2018-01-24T12:24:46.171Z,100226.28
2018-01-24T12:27:13.313Z,100221.70
2018-01-24T12:29:39.612Z,100214.41
2018-01-24T12:32:05.868Z,100214.97
2018-01-24T12:34:32.173Z,100209.22
2018-01-24T12:36:58.428Z,100195.84
2018-01-24T12:39:24.691Z,100199.28
2018-01-24T12:41:51.665Z,100199.05
2018-01-24T12:44:17.905Z,100203.00
2018-01-24T12:46:44.155Z,100198.09
2018-01-24T12:49:10.424Z,100194.92
2018-01-24T12:51:37.288Z,100197.98
2018-01-24T12:54:03.554Z,100195.97
2018-01-24T12:56:29.808Z,100197.42
2018-01-24T12:58:56.054Z,100207.53
2018-01-24T13:01:23.084Z,100189.60
2018-01-24T13:03:49.332Z,100178.77
2018-01-24T13:06:16.346Z,100184.43
2018-01-24T13:08:42.596Z,100187.48
2018-01-24T13:11:09.608Z,100177.57
2018-01-24T13:13:35.867Z,100174.86
2018-01-24T13:16:02.989Z,100169.69
2018-01-24T13:18:29.292Z,100171.84
2018-01-24T13:20:56.221Z,100169.05
2018-01-24T13:23:22.456Z,100168.26
2018-01-24T13:25:48.703Z,100166.08
2018-01-24T13:28:14.989Z,100167.25
2018-01-24T13:30:41.996Z,100161.55
2018-01-24T13:33:09.013Z,100158.73
2018-01-24T13:35:35.338Z,100152.41
2018-01-24T13:38:03.263Z,100152.87
2018-01-24T13:40:29.602Z,100153.02
2018-01-24T13:42:55.840Z,100154.59
2018-01-24T13:45:22.080Z,100146.34
2018-01-24T13:47:49.052Z,100143.27
2018-01-24T13:50:15.358Z,100140.00
2018-01-24T13:52:42.372Z,100132.73
2018-01-24T13:55:09.589Z,100142.44
2018-01-24T13:57:35.855Z,100134.20
2018-01-24T14:00:02.105Z,100111.69
2018-01-24T14:02:28.569Z,100146.80
2018-01-24T14:04:54.803Z,100136.65
2018-01-24T14:07:21.053Z,100128.97
2018-01-24T14:09:47.327Z,100129.20
2018-01-24T14:12:13.605Z,100134.08
2018-01-24T14:14:39.871Z,100130.52
2018-01-24T14:17:06.139Z,100120.97
2018-01-24T14:19:33.105Z,100122.19
2018-01-24T14:21:59.355Z,100117.94
2018-01-24T14:24:25.627Z,100111.62
2018-01-24T14:26:52.892Z,100116.27
2018-01-24T14:29:19.189Z,100114.30
2018-01-24T14:31:45.447Z,100117.28
2018-01-24T14:34:12.420Z,100120.94
2018-01-24T14:36:38.704Z,100119.30
2018-01-24T14:39:04.965Z,100112.52
2018-01-24T14:41:32.020Z,100107.03
2018-01-24T14:43:58.281Z,100107.02
2018-01-24T14:46:24.559Z,100112.58
2018-01-24T14:48:51.534Z,100109.94
2018-01-24T14:51:17.779Z,100117.37
2018-01-24T14:53:44.368Z,100113.83
2018-01-24T14:56:11.364Z,100112.31
2018-01-24T14:58:37.615Z,100113.12
2018-01-24T15:01:03.997Z,100116.47
2018-01-24T15:03:30.245Z,100124.32
2018-01-24T15:05:56.548Z,100118.19
2018-01-24T15:08:23.535Z,100118.53
2018-01-24T15:10:49.893Z,100112.61
2018-01-24T15:13:16.159Z,100106.30
2018-01-24T15:15:43.271Z,100108.81
2018-01-24T15:18:09.586Z,100120.44
2018-01-24T15:20:35.942Z,100120.81
2018-01-24T15:23:02.240Z,100125.89
2018-01-24T15:25:28.544Z,100125.53
2018-01-24T15:27:54.870Z,100119.03
2018-01-24T15:30:21.123Z,100122.31
2018-01-24T15:32:47.430Z,100118.37
2018-01-24T15:35:13.810Z,100110.05
2018-01-24T15:37:40.158Z,100103.81
2018-01-24T15:40:07.244Z,100112.11
2018-01-24T15:42:33.556Z,100105.50
2018-01-24T15:45:00.588Z,100100.02
2018-01-24T15:47:26.866Z,100090.42
2018-01-24T15:49:53.142Z,100089.97
2018-01-24T15:52:20.158Z,100090.98
2018-01-24T15:54:46.429Z,100093.56
2018-01-24T15:57:12.811Z,100089.53
2018-01-24T15:59:39.131Z,100090.23
2018-01-24T16:02:05.421Z,100077.32
2018-01-24T16:04:31.803Z,100067.31
2018-01-24T16:06:58.147Z,100072.38
2018-01-24T16:09:24.464Z,100060.05
2018-01-24T16:11:57.626Z,100062.88
2018-01-24T16:14:24.687Z,100064.20
2018-01-24T16:16:51.031Z,100051.23
2018-01-24T16:19:17.328Z,100052.06
2018-01-24T16:21:44.405Z,100055.06
2018-01-24T16:24:10.666Z,100049.55
2018-01-24T16:26:36.972Z,100045.42
2018-01-24T16:29:04.239Z,100045.42
2018-01-24T16:31:30.507Z,100048.84
2018-01-24T16:33:56.883Z,100030.93
2018-01-24T16:36:23.228Z,100047.58
2018-01-24T16:38:49.502Z,100041.48
2018-01-24T16:41:15.841Z,100039.34
2018-01-24T16:43:42.858Z,100033.30
2018-01-24T16:46:09.188Z,100031.52
2018-01-24T16:48:35.464Z,100032.09
2018-01-24T16:51:02.529Z,100038.06
2018-01-24T16:53:28.798Z,100031.19
2018-01-24T16:55:55.052Z,100030.41
2018-01-24T16:58:21.334Z,100029.63
2018-01-24T17:00:47.596Z,100031.70
2018-01-24T17:03:13.890Z,100029.16
2018-01-24T17:05:40.124Z,100023.48
2018-01-24T17:08:06.376Z,100021.70
2018-01-24T17:10:32.630Z,100008.03
2018-01-24T17:12:58.958Z,100010.19
2018-01-24T17:15:25.272Z,100016.70
2018-01-24T17:17:51.499Z,100015.16
2018-01-24T17:20:17.817Z,100016.58
2018-01-24T17:22:44.093Z,100017.13
2018-01-24T17:25:11.069Z,100012.65
2018-01-24T17:27:37.393Z,100010.02
2018-01-24T17:30:03.671Z,100003.58
2018-01-24T17:32:29.959Z,99998.78
2018-01-24T17:34:56.325Z,99991.08
2018-01-24T17:37:22.625Z,99989.95
2018-01-24T17:39:48.951Z,99995.73
2018-01-24T17:42:15.313Z,99988.23
2018-01-24T17:44:41.596Z,99984.16
2018-01-24T17:47:08.608Z,99985.29
2018-01-24T17:49:34.855Z,99975.44
2018-01-24T17:52:01.101Z,99971.56
2018-01-24T17:54:28.063Z,99977.56
2018-01-24T17:56:54.355Z,99983.64
2018-01-24T17:59:20.628Z,99972.40
2018-01-24T18:01:46.906Z,99965.56
2018-01-24T18:04:13.176Z,99961.79
2018-01-24T18:06:39.449Z,99958.88
2018-01-24T18:09:05.704Z,99951.08
2018-01-24T18:11:31.986Z,99952.27
2018-01-24T18:13:58.358Z,99955.95
2018-01-24T18:16:24.710Z,99954.02
2018-01-24T18:18:51.717Z,99955.75
2018-01-24T18:21:18.152Z,99957.00
2018-01-24T18:23:44.469Z,99946.58
2018-01-24T18:26:10.766Z,99945.96
2018-01-24T18:28:37.145Z,99942.85
2018-01-24T18:31:04.058Z,99943.03
2018-01-24T18:33:30.323Z,99932.33
2018-01-24T18:35:56.561Z,99927.91
2018-01-24T18:38:23.551Z,99921.14
2018-01-24T18:40:49.821Z,99926.26
2018-01-24T18:43:16.328Z,99915.78
2018-01-24T18:45:43.392Z,99915.34
2018-01-24T18:48:10.280Z,99916.17
2018-01-24T18:50:38.106Z,99908.78
2018-01-24T18:53:04.346Z,99906.48
2018-01-24T18:55:31.134Z,99896.81
2018-01-24T18:57:58.178Z,99895.51
2018-01-24T19:00:25.232Z,99889.41
2018-01-24T19:02:52.263Z,99888.98
2018-01-24T19:05:18.617Z,99883.67
2018-01-24T19:07:45.618Z,99885.84
2018-01-24T19:10:11.900Z,99882.02
2018-01-24T19:12:38.141Z,99874.80
2018-01-24T19:15:04.424Z,99879.74
2018-01-24T19:17:30.717Z,99875.36
2018-01-24T19:19:57.025Z,99875.81
2018-01-24T19:22:23.321Z,99875.80
2018-01-24T19:24:49.555Z,99873.57
2018-01-24T19:27:16.612Z,99875.48
2018-01-24T19:29:43.624Z,99879.84
2018-01-24T19:32:09.906Z,99883.02
2018-01-24T19:34:36.340Z,99890.34
2018-01-24T19:37:02.627Z,99889.36
2018-01-24T19:39:29.322Z,99885.13
2018-01-24T19:41:55.668Z,99880.90
2018-01-24T19:44:22.040Z,99886.31
2018-01-24T19:46:49.512Z,99890.73
2018-01-24T19:49:16.566Z,99881.55
2018-01-24T19:51:43.643Z,99878.75
2018-01-24T19:54:13.187Z,99873.44
2018-01-24T19:56:39.635Z,99888.86
2018-01-24T19:59:20.734Z,99880.92
2018-01-24T20:01:47.749Z,99881.96
2018-01-24T20:04:14.116Z,99883.83
2018-01-24T20:06:41.160Z,99877.50
2018-01-24T20:09:08.344Z,99857.42
2018-01-24T20:11:34.634Z,99863.86
2018-01-24T20:14:01.692Z,99871.26
2018-01-24T20:16:28.069Z,99860.77
2018-01-24T20:18:54.356Z,99860.23
2018-01-24T20:21:21.411Z,99868.44
2018-01-24T20:23:47.843Z,99866.53
2018-01-24T20:26:14.311Z,99859.72
2018-01-24T20:28:40.758Z,99854.01
2018-01-24T20:31:07.065Z,99862.23
2018-01-24T20:33:33.367Z,99843.62
2018-01-24T20:35:59.673Z,99858.39
2018-01-24T20:38:26.953Z,99848.83
2018-01-24T20:40:53.981Z,99845.39
2018-01-24T20:43:21.764Z,99836.31
2018-01-24T20:45:48.100Z,99840.63
2018-01-24T20:48:15.180Z,99828.92
2018-01-24T20:50:41.532Z,99835.23
2018-01-24T20:53:07.786Z,99832.83
2018-01-24T20:55:34.098Z,99842.77
2018-01-24T20:58:00.392Z,99839.81
2018-01-24T21:00:26.715Z,99825.97
2018-01-24T21:02:52.986Z,99822.73
2018-01-24T21:05:19.312Z,99819.05
2018-01-24T21:07:45.669Z,99808.25
2018-01-24T21:10:11.943Z,99804.44
2018-01-24T21:12:38.228Z,99789.07
2018-01-24T21:15:05.357Z,99782.65
2018-01-24T21:17:31.670Z,99774.47
2018-01-24T21:19:57.941Z,99768.94
2018-01-24T21:22:24.199Z,99764.87
2018-01-24T21:24:50.557Z,99758.05
2018-01-24T21:27:16.867Z,99771.64
2018-01-24T21:30:04.762Z,99763.91
2018-01-24T21:35:57.953Z,99773.14
2018-01-24T21:38:24.208Z,99772.89
2018-01-24T21:40:50.463Z,99774.09
2018-01-24T21:43:16.762Z,99772.46
2018-01-24T21:45:43.994Z,99770.94
2018-01-24T21:48:10.990Z,99777.20
2018-01-24T21:50:37.828Z,99783.88
2018-01-24T21:53:04.098Z,99774.69
2018-01-24T21:55:30.339Z,99774.91
2018-01-24T21:57:57.388Z,99783.89
2018-01-24T22:00:24.218Z,99780.06
2018-01-24T22:02:50.485Z,99775.81
2018-01-24T22:05:17.495Z,99774.86
2018-01-24T22:07:43.758Z,99767.95
2018-01-24T22:10:10.371Z,99764.50
2018-01-24T22:12:37.448Z,99766.73
2018-01-24T22:15:04.477Z,99766.89
2018-01-24T22:17:30.775Z,99770.08
2018-01-24T22:22:29.084Z,99758.84
2018-01-24T22:24:55.420Z,99771.22
2018-01-24T22:27:21.755Z,99770.58
2018-01-24T22:29:48.118Z,99779.52
2018-01-24T22:32:14.420Z,99776.59
2018-01-24T22:34:40.731Z,99765.21
2018-01-24T22:37:07.049Z,99765.47
2018-01-24T22:39:34.141Z,99769.70
2018-01-24T22:42:01.247Z,99759.53
2018-01-24T22:44:27.547Z,99756.72
2018-01-24T22:46:53.838Z,99751.27
2018-01-24T22:49:21.624Z,99744.00
2018-01-24T22:51:48.634Z,99746.83
2018-01-24T22:54:14.882Z,99755.25
2018-01-24T22:56:41.143Z,99745.41
2018-01-24T22:59:07.357Z,99744.42
2018-01-24T23:01:35.176Z,99766.42
2018-01-24T23:04:01.432Z,99765.58
2018-01-24T23:06:27.694Z,99768.78
2018-01-24T23:08:54.690Z,99779.02
2018-01-24T23:11:21.091Z,99787.58
2018-01-24T23:13:47.354Z,99797.81
2018-01-24T23:16:13.739Z,99813.42
2018-01-24T23:18:40.057Z,99808.13
2018-01-24T23:21:07.098Z,99809.69
2018-01-24T23:23:35.012Z,99808.32
2018-01-24T23:26:01.363Z,99807.23
2018-01-24T23:28:27.696Z,99789.30
2018-01-24T23:30:54.102Z,99803.77
2018-01-24T23:33:20.605Z,99801.31
2018-01-24T23:35:47.687Z,99809.79
2018-01-24T23:38:13.979Z,99797.75
2018-01-24T23:40:41.101Z,99795.13
2018-01-24T23:43:07.421Z,99795.91
2018-01-24T23:45:34.675Z,99795.59
2018-01-24T23:48:01.012Z,99804.66
2018-01-24T23:50:27.375Z,99799.78
2018-01-24T23:52:53.804Z,99795.33
2018-01-24T23:55:20.976Z,99786.26
2018-01-24T23:57:47.304Z,99793.40
